createdAt,value
2022-10-01T00:00:17.585Z,100290.25
2022-10-01T00:07:32.144Z,100288.91
2022-10-01T00:11:30.295Z,100305.88
2022-10-01T00:15:47.294Z,100309.00
2022-10-01T00:19:16.753Z,100325.06
2022-10-01T00:26:35.189Z,100352.69
2022-10-01T00:30:39.614Z,100349.81
2022-10-01T00:39:15.417Z,100329.00
2022-10-01T00:43:19.991Z,100319.50
2022-10-01T00:50:58.119Z,100320.31
2022-10-01T00:55:14.150Z,100308.84
2022-10-01T01:03:17.859Z,100292.75
2022-10-01T01:06:58.952Z,100262.19
2022-10-01T01:14:11.323Z,100255.00
2022-10-01T01:22:00.737Z,100289.88
2022-10-01T01:30:25.437Z,100342.78
2022-10-01T01:34:16.616Z,100389.78
2022-10-01T01:38:50.597Z,100381.81
2022-10-01T01:42:19.379Z,100373.56
2022-10-01T01:45:49.568Z,100296.69
2022-10-01T01:49:11.128Z,100278.78
2022-10-01T01:52:51.610Z,100330.53
2022-10-01T01:56:23.699Z,100344.69
2022-10-01T02:00:14.950Z,100315.72
2022-10-01T02:07:38.318Z,100232.22
2022-10-01T02:11:01.400Z,100220.84
2022-10-01T02:15:18.186Z,100266.00
2022-10-01T02:19:14.126Z,100261.00
2022-10-01T02:22:53.253Z,100280.03
2022-10-01T02:26:20.076Z,100240.06
2022-10-01T02:29:43.618Z,100165.06
2022-10-01T02:32:47.666Z,100157.56
2022-10-01T02:36:28.846Z,100131.66
2022-10-01T02:49:31.006Z,100142.84
2022-10-01T02:53:49.133Z,100163.88
2022-10-01T02:57:43.872Z,100207.22
2022-10-01T03:04:57.174Z,100180.94
2022-10-01T03:08:30.989Z,100141.66
2022-10-01T03:20:13.950Z,100153.22
2022-10-01T03:23:24.342Z,100151.13
2022-10-01T03:26:56.522Z,100134.41
2022-10-01T03:34:30.904Z,100146.63
2022-10-01T03:38:11.732Z,100116.16
2022-10-01T03:41:27.224Z,100110.63
2022-10-01T03:44:32.125Z,100146.25
2022-10-01T03:47:51.578Z,100156.34
2022-10-01T03:51:19.688Z,100148.50
2022-10-01T03:54:21.453Z,100188.91
2022-10-01T04:47:18.655Z,100083.13
2022-10-01T04:50:58.700Z,100084.59
2022-10-01T04:54:23.583Z,100076.16
2022-10-01T04:57:34.797Z,100092.59
2022-10-01T05:00:58.539Z,100084.97
2022-10-01T05:04:03.079Z,100082.88
2022-10-01T05:07:13.336Z,100063.88
2022-10-01T05:10:32.265Z,100034.88
2022-10-01T05:17:05.586Z,100011.38
2022-10-01T05:20:19.619Z,99981.88
2022-10-01T05:23:27.214Z,99972.22
2022-10-01T05:26:42.274Z,100024.75
2022-10-01T05:29:53.829Z,100067.63
2022-10-01T05:33:15.255Z,100105.66
2022-10-01T05:36:23.163Z,100120.91
2022-10-01T05:39:29.991Z,100060.66
2022-10-01T05:42:43.255Z,100073.69
2022-10-01T05:46:38.878Z,100059.38
2022-10-01T05:59:14.910Z,100004.34
2022-10-01T06:07:19.996Z,99978.81
2022-10-01T06:10:27.765Z,99972.66
2022-10-01T06:13:43.612Z,99970.09
2022-10-01T06:20:45.104Z,100006.09
2022-10-01T06:23:52.245Z,100013.78
2022-10-01T06:27:16.655Z,100041.88
2022-10-01T06:30:51.022Z,100025.50
2022-10-01T06:34:18.721Z,99981.69
2022-10-01T06:37:42.043Z,99966.94
2022-10-01T06:41:17.728Z,99967.28
2022-10-01T06:44:43.032Z,99977.41
2022-10-01T06:48:24.341Z,99995.72
2022-10-01T06:51:59.490Z,99962.97
2022-10-01T06:55:32.077Z,99950.03
2022-10-01T06:58:46.554Z,99921.88
2022-10-01T07:01:56.348Z,99900.78
2022-10-01T07:05:45.592Z,99898.53
2022-10-01T07:09:31.680Z,99891.94
2022-10-01T07:12:47.563Z,99884.13
2022-10-01T07:16:03.868Z,99863.66
2022-10-01T07:19:57.875Z,99851.75
2022-10-01T07:23:42.995Z,99840.41
2022-10-01T07:27:07.209Z,99815.19
2022-10-01T07:30:27.829Z,99804.72
2022-10-01T07:33:35.816Z,99804.06
2022-10-01T07:36:43.904Z,99784.59
2022-10-01T07:39:54.447Z,99771.53
2022-10-01T07:43:12.242Z,99785.44
2022-10-01T07:46:21.847Z,99773.41
2022-10-01T07:50:00.182Z,99771.22
2022-10-01T07:53:19.462Z,99750.44
2022-10-01T07:56:28.352Z,99760.38
2022-10-01T08:00:04.054Z,99769.72
2022-10-01T08:03:31.891Z,99754.81
2022-10-01T08:06:35.942Z,99761.25
2022-10-01T08:09:43.868Z,99760.88
2022-10-01T08:12:51.678Z,99777.44
2022-10-01T08:16:03.169Z,99780.41
2022-10-01T08:19:35.349Z,99792.38
2022-10-01T08:22:46.157Z,99768.31
2022-10-01T08:30:46.001Z,99770.03
2022-10-01T08:38:39.756Z,99773.00
2022-10-01T08:41:59.990Z,99783.69
2022-10-01T08:45:23.544Z,99767.19
2022-10-01T08:48:57.414Z,99775.06
2022-10-01T08:52:59.715Z,99762.53
2022-10-01T08:56:51.721Z,99758.03
2022-10-01T09:04:35.256Z,99780.69
2022-10-01T09:13:07.956Z,99786.22
2022-10-01T09:16:35.263Z,99788.50
2022-10-01T09:20:25.914Z,99773.69
2022-10-01T09:28:06.322Z,99769.00
2022-10-01T09:36:23.038Z,99741.63
2022-10-01T09:39:52.122Z,99751.66
2022-10-01T09:43:02.992Z,99745.84
2022-10-01T09:46:09.053Z,99746.72
2022-10-01T09:49:42.642Z,99741.63
2022-10-01T09:52:55.988Z,99746.22
2022-10-01T09:56:10.266Z,99747.91
2022-10-01T09:59:24.476Z,99748.03
2022-10-01T10:02:47.561Z,99754.78
2022-10-01T10:05:59.087Z,99749.72
2022-10-01T10:09:43.717Z,99745.56
2022-10-01T10:12:59.962Z,99746.69
2022-10-01T10:20:52.085Z,99751.16
2022-10-01T10:24:51.411Z,99763.19
2022-10-01T10:28:03.862Z,99776.53
2022-10-01T10:45:28.416Z,99752.63
2022-10-01T11:13:42.307Z,99729.91
2022-10-01T11:17:47.215Z,99742.38
2022-10-01T12:47:30.599Z,99766.25
2022-10-01T12:55:35.582Z,99761.94
2022-10-01T13:03:35.591Z,99750.84
2022-10-01T13:07:36.521Z,99762.53
2022-10-01T13:20:00.610Z,99749.41
2022-10-01T13:27:32.777Z,99758.94
2022-10-01T13:34:35.556Z,99783.50
2022-10-01T13:37:59.543Z,99787.09
2022-10-01T13:41:24.501Z,99786.38
2022-10-01T13:45:03.536Z,99776.94
2022-10-01T13:48:43.253Z,99793.94
2022-10-01T13:52:24.044Z,99773.44
2022-10-01T13:55:56.068Z,99782.19
2022-10-01T13:59:54.184Z,99783.22
2022-10-01T14:04:26.824Z,99778.81
2022-10-01T14:17:39.699Z,99756.53
2022-10-01T14:30:58.115Z,99752.75
2022-10-01T14:35:22.178Z,99755.31
2022-10-01T14:47:59.059Z,99744.88
2022-10-01T14:51:43.974Z,99755.31
2022-10-01T14:59:18.045Z,99740.38
2022-10-01T15:04:14.121Z,99741.06
2022-10-01T15:08:55.367Z,99736.78
2022-10-01T15:37:24.525Z,99744.69
2022-10-01T15:55:01.279Z,99732.03
2022-10-01T15:58:42.855Z,99731.53
2022-10-01T16:06:31.513Z,99723.91
2022-10-01T16:10:12.199Z,99725.63
2022-10-01T16:13:52.412Z,99722.88
2022-10-01T16:17:51.274Z,99719.81
2022-10-01T16:21:31.289Z,99717.03
2022-10-01T16:25:59.309Z,99726.28
2022-10-01T16:30:11.325Z,99724.72
2022-10-01T16:33:47.611Z,99716.94
2022-10-01T16:43:36.152Z,99713.56
2022-10-01T16:47:42.347Z,99700.94
2022-10-01T17:12:24.242Z,99685.53
2022-10-01T17:23:40.309Z,99673.34
2022-10-01T17:27:00.366Z,99669.00
2022-10-01T17:30:38.464Z,99676.66
2022-10-01T17:33:43.473Z,99675.66
2022-10-01T17:37:05.902Z,99669.97
2022-10-01T17:40:42.469Z,99667.44
2022-10-01T17:43:51.340Z,99662.81
2022-10-01T17:47:10.053Z,99660.03
2022-10-01T17:50:19.841Z,99666.31
2022-10-01T17:53:44.158Z,99665.78
2022-10-01T17:56:52.126Z,99664.78
2022-10-01T18:00:04.098Z,99663.69
2022-10-01T18:03:18.916Z,99659.66
2022-10-01T18:14:12.261Z,99642.13
2022-10-01T18:17:51.681Z,99631.53
2022-10-01T18:25:03.776Z,99626.66
2022-10-01T18:28:33.993Z,99624.94
2022-10-01T18:36:12.089Z,99616.66
2022-10-01T18:44:20.596Z,99617.19
2022-10-01T18:54:48.296Z,99596.72
2022-10-01T18:58:02.059Z,99595.66
2022-10-01T19:02:03.483Z,99600.59
2022-10-01T19:05:51.697Z,99600.59
2022-10-01T19:21:54.419Z,99581.72
2022-10-01T19:29:16.094Z,99558.16
2022-10-01T19:37:41.414Z,99561.94
2022-10-01T19:41:49.495Z,99554.88
2022-10-01T19:45:43.826Z,99576.91
2022-10-01T19:49:13.687Z,99565.44
2022-10-01T19:52:49.816Z,99564.06
2022-10-01T19:55:56.232Z,99566.28
2022-10-01T19:59:11.201Z,99555.69
2022-10-01T20:02:42.679Z,99557.75
2022-10-01T20:06:07.801Z,99563.66
2022-10-01T20:09:31.804Z,99557.25
2022-10-01T20:13:22.071Z,99566.50
2022-10-01T20:16:54.150Z,99570.13
2022-10-01T20:20:17.622Z,99557.78
2022-10-01T20:23:48.245Z,99551.50
2022-10-01T20:27:12.387Z,99544.91
2022-10-01T20:30:31.135Z,99554.25
2022-10-01T20:33:59.834Z,99553.53
2022-10-01T20:37:05.949Z,99566.06
2022-10-01T20:40:47.675Z,99569.03
2022-10-01T20:44:04.362Z,99569.00
2022-10-01T20:47:24.027Z,99577.75
2022-10-01T20:50:42.560Z,99573.03
2022-10-01T20:54:11.814Z,99574.63
2022-10-01T20:57:55.236Z,99560.72
2022-10-01T21:01:02.824Z,99564.34
2022-10-01T21:04:27.946Z,99565.19
2022-10-01T21:07:56.167Z,99570.06
2022-10-01T21:14:51.909Z,99573.88
2022-10-01T21:18:20.151Z,99580.41
2022-10-01T21:22:04.667Z,99571.66
2022-10-01T21:26:00.250Z,99573.66
2022-10-01T21:29:44.360Z,99567.84
2022-10-01T21:33:42.225Z,99574.50
2022-10-01T21:37:48.828Z,99574.47
2022-10-01T21:41:40.490Z,99586.25
2022-10-01T21:49:39.163Z,99587.75
2022-10-01T21:53:10.326Z,99583.09
2022-10-01T21:57:38.769Z,99577.13
2022-10-01T22:00:50.018Z,99578.47
2022-10-01T22:04:09.436Z,99593.91
2022-10-01T22:07:40.458Z,99588.72
2022-10-01T22:11:23.643Z,99587.25
2022-10-01T22:14:40.742Z,99592.22
2022-10-01T22:18:08.556Z,99587.69
2022-10-01T22:30:27.577Z,99584.69
2022-10-01T22:34:36.813Z,99586.69
2022-10-01T22:38:24.591Z,99587.25
2022-10-01T22:42:15.985Z,99581.53
2022-10-01T22:54:31.934Z,99598.72
2022-10-01T22:58:08.459Z,99595.06
2022-10-01T23:06:33.539Z,99588.78
2022-10-01T23:09:56.103Z,99607.66
2022-10-01T23:13:46.973Z,99614.31
2022-10-01T23:17:15.804Z,99613.91
2022-10-01T23:20:48.195Z,99614.94
2022-10-01T23:28:11.808Z,99621.75
2022-10-01T23:31:48.508Z,99632.09
2022-10-01T23:39:19.964Z,99641.66
2022-10-01T23:42:59.679Z,99648.94
2022-10-01T23:46:43.508Z,99650.56
2022-10-01T23:49:46.591Z,99657.59
2022-10-01T23:54:12.195Z,99652.78
2022-10-01T23:57:51.660Z,99650.59
